Time;durP1;ratioP1;P1;durP2;ratioP2;P2;SDS_P1;SDS_P2;PMS_P1;PMS_P2;Temp;Humidity;BMP_temperature;BMP_pressure;BME280_temperature;BME280_humidity;BME280_pressure;Samples;Min_cycle;Max_cycle;Signal;HPM_P1;HPM_P2
2024/02/23 00:01:51;;;;;;;10.23;1.83;;;;;;;8.44;63.21;98713.97;4943845;28;100434;-90
2024/02/23 00:04:18;;;;;;;9.85;2.15;;;;;;;8.50;63.36;98703.47;4947389;28;96775;-90
2024/02/23 00:06:44;;;;;;;10.45;2.55;;;;;;;8.56;63.44;98709.47;4941916;28;96921;-89
2024/02/23 00:09:10;;;;;;;10.63;2.22;;;;;;;8.63;63.44;98710.25;4946817;28;100314;-89
2024/02/23 00:11:40;;;;;;;9.35;1.63;;;;;;;8.70;63.52;98716.22;4939943;28;100275;-88
2024/02/23 00:14:06;;;;;;;11.77;1.35;;;;;;;8.76;63.39;98726.50;4953377;28;96861;-89
2024/02/23 00:16:37;;;;;;;10.70;2.75;;;;;;;8.82;63.50;98726.41;4966145;28;96920;-88
2024/02/23 00:19:03;;;;;;;10.65;2.30;;;;;;;8.88;63.15;98723.75;4968571;28;101125;-88
2024/02/23 00:21:29;;;;;;;9.77;2.38;;;;;;;8.94;63.26;98730.59;4940910;28;99081;-88
2024/02/23 00:23:54;;;;;;;8.23;2.15;;;;;;;9.01;63.14;98736.56;4936955;28;96859;-89
2024/02/23 00:26:20;;;;;;;11.57;1.83;;;;;;;9.07;62.93;98744.25;4948813;28;96756;-88
2024/02/23 00:28:46;;;;;;;8.23;2.95;;;;;;;9.13;63.00;98736.38;4949932;28;100212;-87
2024/02/23 00:31:11;;;;;;;10.57;1.45;;;;;;;9.18;62.75;98733.69;4934777;28;100127;-89
2024/02/23 00:33:37;;;;;;;10.63;2.47;;;;;;;9.22;62.76;98733.63;4938668;28;96933;-87
2024/02/23 00:36:03;;;;;;;14.07;1.95;;;;;;;9.28;62.66;98743.06;4949967;28;96840;-88
2024/02/23 00:38:29;;;;;;;12.40;1.85;;;;;;;9.31;62.65;98736.09;4942444;28;99218;-88
2024/02/23 00:40:54;;;;;;;7.45;2.80;;;;;;;9.38;62.56;98749.00;4942901;28;100051;-88
2024/02/23 00:43:20;;;;;;;15.93;1.73;;;;;;;9.41;62.36;98751.53;4950365;28;96757;-88
2024/02/23 00:45:48;;;;;;;9.30;2.10;;;;;;;9.44;62.46;98748.91;4945004;28;97048;-88
2024/02/23 00:48:14;;;;;;;7.80;2.58;;;;;;;9.47;62.41;98748.84;4955163;28;100634;-89
2024/02/23 00:50:39;;;;;;;10.60;2.00;;;;;;;9.48;62.39;98753.16;4950259;28;100700;-88
2024/02/23 00:53:05;;;;;;;9.43;2.40;;;;;;;9.53;62.27;98764.34;4948372;28;96813;-89
2024/02/23 00:55:30;;;;;;;11.48;2.75;;;;;;;9.53;61.83;98773.00;4946747;28;96899;-88
2024/02/23 00:57:56;;;;;;;7.60;2.25;;;;;;;9.53;61.87;98786.03;4953890;28;100551;-88
2024/02/23 01:00:21;;;;;;;7.75;2.30;;;;;;;9.56;61.73;98797.28;4951403;28;100496;-88
2024/02/23 01:02:47;;;;;;;9.60;2.17;;;;;;;9.53;61.58;98801.63;4945978;28;96945;-89
2024/02/23 01:05:20;;;;;;;5.47;1.13;;;;;;;9.51;61.05;98799.97;4948346;28;96898;-89
2024/02/23 01:07:47;;;;;;;6.47;1.63;;;;;;;9.46;60.63;98791.38;4967340;28;100310;-88
2024/02/23 01:10:12;;;;;;;4.22;1.60;;;;;;;9.37;60.45;98799.31;4954242;28;100343;-88
2024/02/23 01:12:38;;;;;;;4.43;0.77;;;;;;;9.28;60.54;98806.38;4949536;28;96805;-88
2024/02/23 01:15:04;;;;;;;3.45;0.82;;;;;;;9.22;60.39;98798.66;4936121;28;96703;-88
2024/02/23 01:17:29;;;;;;;9.98;2.03;;;;;;;9.18;60.34;98803.91;4965908;28;100561;-88
2024/02/23 01:19:54;;;;;;;8.52;1.52;;;;;;;9.12;60.25;98808.31;4951576;28;97520;-89
2024/02/23 01:22:20;;;;;;;5.75;1.75;;;;;;;9.09;60.42;98821.41;4970326;28;96790;-88
2024/02/23 01:24:46;;;;;;;5.13;2.10;;;;;;;9.11;60.80;98832.63;4939119;28;96763;-89
2024/02/23 01:27:12;;;;;;;7.35;1.38;;;;;;;9.12;60.78;98841.28;4936707;28;100193;-88
2024/02/23 01:29:37;;;;;;;8.25;1.23;;;;;;;9.13;60.77;98830.00;4950182;28;100255;-87
2024/02/23 01:32:03;;;;;;;8.82;1.83;;;;;;;9.13;60.81;98828.25;4950549;28;96900;-88
2024/02/23 01:34:28;;;;;;;5.10;1.92;;;;;;;9.12;60.86;98836.09;4957778;28;96894;-88
2024/02/23 01:36:54;;;;;;;10.95;1.80;;;;;;;9.11;60.98;98843.03;4935188;28;100070;-88
2024/02/23 01:39:20;;;;;;;6.55;1.10;;;;;;;9.10;61.08;98843.91;4949851;28;100337;-88
2024/02/23 01:41:48;;;;;;;11.60;2.13;;;;;;;9.14;61.17;98855.13;4952251;28;97235;-88
2024/02/23 01:44:15;;;;;;;11.40;2.25;;;;;;;9.17;61.41;98843.84;4949495;28;96874;-88
2024/02/23 01:46:44;;;;;;;10.20;2.17;;;;;;;9.19;61.40;98844.66;4967542;28;97716;-88
2024/02/23 01:49:09;;;;;;;8.50;1.02;;;;;;;9.23;61.51;98843.75;4969125;28;97916;-88
2024/02/23 01:51:35;;;;;;;8.15;1.75;;;;;;;9.27;61.61;98835.88;4934060;28;96837;-88
2024/02/23 01:54:02;;;;;;;7.90;1.70;;;;;;;9.29;61.91;98843.66;4953283;28;96875;-87
2024/02/23 01:56:28;;;;;;;10.10;2.10;;;;;;;9.34;61.54;98849.66;4951450;28;100380;-88
2024/02/23 01:58:55;;;;;;;6.93;1.83;;;;;;;9.37;61.59;98856.56;4936585;28;101582;-89
2024/02/23 02:01:21;;;;;;;8.48;1.55;;;;;;;9.39;61.53;98857.38;4951217;28;96854;-88
2024/02/23 02:03:46;;;;;;;6.18;1.42;;;;;;;9.40;61.44;98854.78;4951685;28;96848;-88
2024/02/23 02:06:12;;;;;;;9.30;1.25;;;;;;;9.41;61.55;98850.41;4932578;28;99205;-88
2024/02/23 02:08:38;;;;;;;7.85;2.08;;;;;;;9.44;61.59;98858.19;4934622;28;100170;-88
2024/02/23 02:11:04;;;;;;;10.77;2.13;;;;;;;9.44;61.41;98866.84;4971805;28;96872;-89
2024/02/23 02:13:29;;;;;;;6.18;1.20;;;;;;;9.46;61.53;98872.03;4952014;28;96820;-87
2024/02/23 02:15:55;;;;;;;11.05;2.08;;;;;;;9.46;61.42;98875.47;4954327;28;100607;-87
2024/02/23 02:18:21;;;;;;;7.35;1.98;;;;;;;9.47;61.27;98872.00;4929639;28;100343;-88
2024/02/23 02:20:57;;;;;;;6.45;2.05;;;;;;;9.46;61.36;98869.44;4947961;28;96814;-88
2024/02/23 02:23:23;;;;;;;6.50;2.15;;;;;;;9.48;61.32;98867.66;4968454;28;96878;-87
2024/02/23 02:25:56;;;;;;;10.27;2.03;;;;;;;9.47;61.09;98868.56;4965834;28;100581;-87
2024/02/23 02:28:23;;;;;;;6.43;1.70;;;;;;;9.49;61.38;98879.81;4959002;28;100663;-87
2024/02/23 02:30:49;;;;;;;9.40;1.58;;;;;;;9.49;61.14;98872.00;4935341;28;96828;-87
2024/02/23 02:33:15;;;;;;;6.28;2.10;;;;;;;9.47;61.27;98881.56;4947725;28;96781;-88
2024/02/23 02:35:43;;;;;;;7.72;1.90;;;;;;;9.46;61.17;98879.84;4948516;28;100669;-87
2024/02/23 02:38:08;;;;;;;13.07;2.10;;;;;;;9.45;61.17;98880.75;4946089;28;100397;-87
2024/02/23 02:40:34;;;;;;;6.22;1.50;;;;;;;9.43;61.21;98878.16;4967772;28;96759;-88
2024/02/23 02:42:59;;;;;;;10.50;1.45;;;;;;;9.41;60.99;98877.31;4952048;28;96881;-87
2024/02/23 02:45:24;;;;;;;9.50;2.55;;;;;;;9.39;61.07;98878.22;4945978;28;99831;-87
2024/02/23 02:47:50;;;;;;;7.03;2.50;;;;;;;9.37;61.21;98879.97;4948550;28;99778;-87
2024/02/23 02:50:16;;;;;;;10.90;2.35;;;;;;;9.36;61.06;98878.25;4948705;28;96739;-88
2024/02/23 02:52:42;;;;;;;6.43;1.85;;;;;;;9.36;60.96;98883.44;4933763;28;97496;-88
2024/02/23 02:55:08;;;;;;;8.13;2.35;;;;;;;9.34;61.15;98886.94;4950092;28;98824;-88
2024/02/23 02:57:35;;;;;;;6.88;1.90;;;;;;;9.32;60.94;98893.91;4941442;28;99904;-88
2024/02/23 03:00:04;;;;;;;9.23;1.33;;;;;;;9.31;60.84;98897.38;4950098;28;97703;-87
2024/02/23 03:02:31;;;;;;;8.00;1.80;;;;;;;9.31;60.95;98900.00;4930859;28;96917;-88
2024/02/23 03:04:56;;;;;;;9.00;2.10;;;;;;;9.30;61.27;98898.28;4954823;28;98884;-88
2024/02/23 03:07:22;;;;;;;9.65;2.40;;;;;;;9.30;61.11;98900.00;4952852;28;99916;-88
2024/02/23 03:09:49;;;;;;;8.73;1.45;;;;;;;9.28;60.94;98891.38;4932328;28;97093;-87
2024/02/23 03:12:14;;;;;;;9.23;2.47;;;;;;;9.27;60.91;98905.25;4935544;28;96828;-88
2024/02/23 03:14:40;;;;;;;11.73;2.17;;;;;;;9.22;60.67;98909.66;4945205;28;100747;-88
2024/02/23 03:17:07;;;;;;;6.75;2.25;;;;;;;9.18;60.45;98906.25;4951754;28;97776;-88
2024/02/23 03:19:32;;;;;;;5.82;1.65;;;;;;;9.16;60.77;98905.38;4944038;28;96811;-88
2024/02/23 03:21:58;;;;;;;8.75;2.72;;;;;;;9.14;60.69;98899.34;4947010;28;96817;-88
2024/02/23 03:24:24;;;;;;;8.60;2.50;;;;;;;9.11;60.85;98913.25;4967335;28;99886;-88
2024/02/23 03:26:49;;;;;;;8.52;2.45;;;;;;;9.07;60.68;98913.31;4947479;28;100189;-88
2024/02/23 03:29:15;;;;;;;6.40;2.22;;;;;;;9.03;60.58;98917.69;4959029;28;96806;-88
2024/02/23 03:31:44;;;;;;;5.50;2.60;;;;;;;8.99;60.60;98920.34;4945828;28;97084;-88
2024/02/23 03:34:09;;;;;;;9.10;1.52;;;;;;;8.94;60.34;98925.59;4934580;28;100856;-88
2024/02/23 03:36:36;;;;;;;7.35;2.65;;;;;;;8.91;60.67;98923.91;4950463;28;100772;-87
2024/02/23 03:39:01;;;;;;;8.32;1.95;;;;;;;8.88;61.00;98926.53;4934977;28;96762;-87
2024/02/23 03:41:27;;;;;;;7.07;1.98;;;;;;;8.87;60.89;98918.75;4949724;28;96925;-88
2024/02/23 03:43:52;;;;;;;5.28;2.38;;;;;;;8.85;61.00;98936.13;4968207;28;100458;-87
2024/02/23 03:46:19;;;;;;;7.95;2.20;;;;;;;8.84;60.94;98936.97;4950647;28;100202;-87
2024/02/23 03:48:45;;;;;;;7.00;2.22;;;;;;;8.83;61.01;98938.72;4947682;28;96849;-87
2024/02/23 03:51:13;;;;;;;5.60;2.20;;;;;;;8.82;61.20;98937.00;4945974;28;96798;-88
2024/02/23 03:53:38;;;;;;;9.43;1.65;;;;;;;8.82;61.02;98929.19;4948060;28;97797;-88
2024/02/23 03:56:04;;;;;;;9.43;2.25;;;;;;;8.82;61.07;98941.34;4946408;28;97744;-87
2024/02/23 03:58:29;;;;;;;8.50;2.63;;;;;;;8.83;61.17;98950.88;4949537;28;96783;-87
2024/02/23 04:00:55;;;;;;;7.55;1.65;;;;;;;8.83;61.33;98941.31;4930161;28;96812;-88
2024/02/23 04:03:21;;;;;;;9.60;2.00;;;;;;;8.83;60.99;98938.72;4925640;28;99992;-88
2024/02/23 04:05:46;;;;;;;4.55;1.40;;;;;;;8.83;61.00;98946.53;4944060;28;100166;-87
2024/02/23 04:08:12;;;;;;;8.18;1.65;;;;;;;8.81;60.97;98945.69;4944035;28;96797;-88
2024/02/23 04:10:37;;;;;;;6.32;2.08;;;;;;;8.80;61.04;98954.34;4963765;28;96898;-88
2024/02/23 04:13:03;;;;;;;9.10;1.55;;;;;;;8.80;61.00;98950.91;4940955;28;100092;-87
2024/02/23 04:15:28;;;;;;;7.72;2.25;;;;;;;8.79;60.99;98959.56;4944651;28;97650;-88
2024/02/23 04:17:54;;;;;;;8.02;2.45;;;;;;;8.76;61.10;98960.47;4945187;28;96855;-88
2024/02/23 04:20:19;;;;;;;8.25;1.80;;;;;;;8.74;61.04;98959.63;4948167;28;96776;-88
2024/02/23 04:22:46;;;;;;;9.30;1.90;;;;;;;8.73;61.11;98960.50;4944303;28;99877;-87
2024/02/23 04:25:11;;;;;;;5.55;1.80;;;;;;;8.73;61.13;98956.16;4926897;28;101126;-86
2024/02/23 04:27:37;;;;;;;8.07;1.73;;;;;;;8.72;60.98;98950.97;4964157;28;96792;-88
2024/02/23 04:30:06;;;;;;;9.13;2.60;;;;;;;8.70;61.09;98965.75;4949045;28;97201;-87
2024/02/23 04:32:32;;;;;;;9.10;3.20;;;;;;;8.69;61.24;98961.41;4948280;28;101392;-88
2024/02/23 04:34:57;;;;;;;8.82;2.10;;;;;;;8.67;61.32;98963.16;4948399;28;100114;-87
2024/02/23 04:37:23;;;;;;;7.35;1.65;;;;;;;8.67;61.21;98968.34;4930853;28;96834;-88
2024/02/23 04:39:48;;;;;;;7.40;2.55;;;;;;;8.66;61.12;98970.09;4950170;28;96880;-87
2024/02/23 04:42:14;;;;;;;8.32;2.25;;;;;;;8.63;61.21;98977.03;4932648;28;100155;-88
2024/02/23 04:44:44;;;;;;;10.23;2.50;;;;;;;8.62;61.32;98980.53;4926180;28;100057;-87
2024/02/23 04:47:09;;;;;;;6.78;1.60;;;;;;;8.62;61.35;98971.00;4942626;28;96793;-88
2024/02/23 04:49:35;;;;;;;9.75;2.30;;;;;;;8.62;61.60;98977.94;4945636;28;96768;-88
2024/02/23 04:52:01;;;;;;;8.27;2.33;;;;;;;8.62;61.90;98975.34;4946483;28;100541;-88
2024/02/23 04:54:26;;;;;;;7.10;2.55;;;;;;;8.63;61.64;98977.94;4944638;28;97465;-87
2024/02/23 04:56:52;;;;;;;10.35;2.92;;;;;;;8.64;61.79;98983.97;4940151;28;96817;-88
2024/02/23 04:59:17;;;;;;;6.50;1.75;;;;;;;8.65;61.85;98976.16;4947538;28;97040;-86
2024/02/23 05:01:43;;;;;;;12.73;2.38;;;;;;;8.70;61.77;98977.00;4945875;28;100559;-89
2024/02/23 05:04:09;;;;;;;8.85;2.65;;;;;;;8.72;61.79;98976.97;4928596;28;100465;-87
2024/02/23 05:06:37;;;;;;;10.48;3.10;;;;;;;8.73;61.63;98971.78;4928600;28;96917;-87
2024/02/23 05:09:03;;;;;;;8.85;2.70;;;;;;;8.76;61.81;98978.66;4931640;28;96822;-87
2024/02/23 05:11:28;;;;;;;7.90;2.70;;;;;;;8.76;61.51;98963.06;4942181;28;100212;-86
2024/02/23 05:13:54;;;;;;;8.45;2.63;;;;;;;8.80;61.77;98972.53;4938616;28;100239;-87
2024/02/23 05:16:19;;;;;;;7.80;2.03;;;;;;;8.82;61.68;98967.34;4942792;28;96828;-88
2024/02/23 05:18:46;;;;;;;5.47;2.15;;;;;;;8.84;61.72;98966.47;4931016;28;96858;-87
2024/02/23 05:21:14;;;;;;;9.63;1.80;;;;;;;8.88;61.47;98962.09;4946262;28;97972;-87
2024/02/23 05:23:39;;;;;;;7.30;2.25;;;;;;;8.88;61.62;98965.53;4947602;28;101394;-87
2024/02/23 05:26:05;;;;;;;9.52;2.85;;;;;;;8.92;61.66;98971.56;4945320;28;96827;-86
2024/02/23 05:28:30;;;;;;;8.50;2.85;;;;;;;8.93;61.62;98971.56;4926768;28;96908;-87
2024/02/23 05:30:56;;;;;;;14.15;2.97;;;;;;;8.96;61.55;98976.69;4944894;28;97660;-88
2024/02/23 05:33:22;;;;;;;10.00;2.33;;;;;;;8.99;61.41;98968.03;4941109;28;99907;-87
2024/02/23 05:35:51;;;;;;;10.35;2.38;;;;;;;9.01;61.49;98978.41;4942447;28;96832;-87
2024/02/23 05:38:16;;;;;;;10.98;3.67;;;;;;;9.01;61.48;98970.59;4947510;28;96883;-87
2024/02/23 05:40:42;;;;;;;6.75;2.90;;;;;;;9.04;61.35;98978.38;4941302;28;97646;-87
2024/02/23 05:43:08;;;;;;;8.77;2.55;;;;;;;9.05;61.42;98977.50;4925673;28;100109;-86
2024/02/23 05:45:34;;;;;;;9.45;3.63;;;;;;;9.06;61.28;98977.47;4943039;28;96865;-87
2024/02/23 05:47:59;;;;;;;6.20;3.20;;;;;;;9.06;61.13;98974.88;4946878;28;96950;-86
2024/02/23 05:50:25;;;;;;;8.68;2.50;;;;;;;9.07;61.23;98971.41;4952785;28;100302;-87
2024/02/23 05:52:52;;;;;;;8.30;2.85;;;;;;;9.07;61.39;98976.59;4932736;28;100136;-87
2024/02/23 05:55:18;;;;;;;10.15;3.63;;;;;;;9.08;61.22;98964.47;4929576;28;96796;-87
2024/02/23 05:57:44;;;;;;;6.80;3.38;;;;;;;9.07;61.13;98971.41;4948229;28;96826;-88
2024/02/23 06:00:10;;;;;;;8.45;3.25;;;;;;;9.08;61.40;98964.47;4948874;28;97696;-87
2024/02/23 06:02:38;;;;;;;8.48;2.42;;;;;;;9.09;61.31;98964.44;4945269;28;100278;-87
2024/02/23 06:05:07;;;;;;;9.00;3.05;;;;;;;9.09;61.11;98972.25;4962550;28;96827;-87
2024/02/23 06:07:34;;;;;;;7.93;3.13;;;;;;;9.08;61.04;98969.66;4932147;28;96873;-87
2024/02/23 06:10:00;;;;;;;7.85;3.33;;;;;;;9.06;61.26;98972.28;4947866;28;100281;-87
2024/02/23 06:12:26;;;;;;;7.75;3.60;;;;;;;9.05;60.96;98975.75;4934258;28;100515;-87
2024/02/23 06:14:52;;;;;;;11.02;2.65;;;;;;;9.03;61.11;98977.50;4939202;28;96804;-86
2024/02/23 06:17:18;;;;;;;9.05;2.50;;;;;;;9.02;61.15;98982.72;4944819;28;96928;-86
2024/02/23 06:19:43;;;;;;;6.35;2.17;;;;;;;9.02;61.22;98981.00;4941162;28;100649;-87
2024/02/23 06:22:10;;;;;;;8.10;2.85;;;;;;;9.01;61.13;98984.47;4927017;28;100685;-86
2024/02/23 06:24:36;;;;;;;9.52;2.40;;;;;;;9.01;61.16;98984.47;4927159;28;96785;-87
2024/02/23 06:27:03;;;;;;;7.53;2.03;;;;;;;9.04;61.25;98991.38;4951907;28;96851;-87
2024/02/23 06:29:29;;;;;;;6.28;2.05;;;;;;;9.04;61.35;98994.84;4947815;28;100564;-88
2024/02/23 06:31:55;;;;;;;9.05;1.90;;;;;;;9.05;61.18;98990.50;4951737;28;96751;-86
2024/02/23 06:34:20;;;;;;;6.38;1.90;;;;;;;9.06;61.13;98990.47;4965507;28;96770;-89
2024/02/23 06:36:46;;;;;;;7.43;2.25;;;;;;;9.07;61.10;98983.53;4952223;28;96937;-88
2024/02/23 06:39:12;;;;;;;5.03;1.92;;;;;;;9.07;61.01;98986.13;4939574;28;96854;-88
2024/02/23 06:41:39;;;;;;;9.40;2.55;;;;;;;9.09;61.22;98987.84;4966335;28;99276;-87
2024/02/23 06:44:12;;;;;;;5.70;2.05;;;;;;;9.12;60.83;98986.94;4971254;28;97124;-91
2024/02/23 06:46:38;;;;;;;6.13;2.35;;;;;;;9.14;61.03;98982.56;4953940;28;96885;-87
2024/02/23 06:49:04;;;;;;;4.03;2.22;;;;;;;9.15;60.77;98985.16;4950809;28;100366;-87
2024/02/23 06:51:31;;;;;;;4.88;2.30;;;;;;;9.19;60.95;98988.59;4949511;28;100243;-86
2024/02/23 06:54:00;;;;;;;6.05;2.63;;;;;;;9.21;60.63;98985.97;4931856;28;96718;-87
2024/02/23 06:56:28;;;;;;;7.93;2.45;;;;;;;9.21;60.73;98983.38;4943532;28;96879;-86
2024/02/23 06:58:54;;;;;;;5.80;1.50;;;;;;;9.22;60.57;98978.16;4944049;28;100029;-87
2024/02/23 07:01:22;;;;;;;6.00;1.77;;;;;;;9.24;60.69;98985.94;4936075;28;100173;-87
2024/02/23 07:03:50;;;;;;;6.47;2.05;;;;;;;9.28;60.59;98979.81;4929271;28;96798;-86
2024/02/23 07:06:18;;;;;;;7.18;2.35;;;;;;;9.30;60.74;98984.16;4940800;28;96846;-87
2024/02/23 07:08:45;;;;;;;3.33;1.52;;;;;;;9.30;60.46;98984.16;4942822;28;98595;-86
2024/02/23 07:11:11;;;;;;;6.50;2.35;;;;;;;9.32;60.49;98979.78;4948758;28;100070;-87
2024/02/23 07:13:37;;;;;;;4.40;2.33;;;;;;;9.36;60.65;98982.31;4946647;28;96780;-86
2024/02/23 07:16:03;;;;;;;9.60;1.60;;;;;;;9.37;60.42;98992.72;4944712;28;96919;-87
2024/02/23 07:18:28;;;;;;;10.90;1.98;;;;;;;9.39;60.29;98992.69;4941849;28;100163;-86
2024/02/23 07:20:54;;;;;;;5.90;1.55;;;;;;;9.41;60.19;98997.03;4952639;28;100392;-86
2024/02/23 07:23:20;;;;;;;8.18;1.73;;;;;;;9.41;60.16;98996.13;4940466;28;96794;-86
2024/02/23 07:25:50;;;;;;;5.90;1.77;;;;;;;9.43;60.13;99000.47;4934578;28;97161;-86
2024/02/23 07:28:19;;;;;;;7.90;1.85;;;;;;;9.45;59.75;98992.63;4947368;28;100265;-86
2024/02/23 07:30:46;;;;;;;6.18;1.90;;;;;;;9.47;59.86;98990.88;4934141;28;101386;-87
2024/02/23 07:33:12;;;;;;;5.50;1.85;;;;;;;9.50;59.88;98983.00;4933733;28;97060;-86
2024/02/23 07:35:37;;;;;;;4.70;2.45;;;;;;;9.53;59.89;98983.81;4933134;28;96918;-87
2024/02/23 07:38:04;;;;;;;5.85;2.20;;;;;;;9.57;59.93;98974.22;4957545;28;98034;-88
2024/02/23 07:40:31;;;;;;;9.65;1.58;;;;;;;9.60;59.83;98974.19;4952991;28;100149;-86
2024/02/23 07:42:57;;;;;;;10.82;2.33;;;;;;;9.62;59.50;98979.38;4948450;28;96763;-87
2024/02/23 07:45:23;;;;;;;7.10;2.03;;;;;;;9.63;59.54;98968.09;4930260;28;96886;-88
2024/02/23 07:47:51;;;;;;;5.72;1.52;;;;;;;9.66;59.29;98971.53;4947081;28;100086;-87
2024/02/23 07:50:18;;;;;;;7.93;1.65;;;;;;;9.66;59.60;98966.31;4932782;28;99481;-88
2024/02/23 07:52:49;;;;;;;7.28;2.15;;;;;;;9.69;59.41;98963.66;4949359;28;97431;-88
2024/02/23 07:55:18;;;;;;;8.82;2.45;;;;;;;9.69;59.42;98963.66;4952311;28;96786;-86
2024/02/23 07:57:57;;;;;;;8.65;2.60;;;;;;;9.70;59.40;98962.78;4955654;28;99793;-87
2024/02/23 08:00:22;;;;;;;7.05;1.73;;;;;;;9.69;59.50;98960.19;4958032;28;99949;-87
2024/02/23 08:02:51;;;;;;;8.25;2.53;;;;;;;9.68;59.25;98958.50;4936533;28;96823;-88
2024/02/23 08:05:16;;;;;;;7.45;2.70;;;;;;;9.68;59.26;98961.09;4952589;28;96825;-87
2024/02/23 08:07:42;;;;;;;7.97;1.58;;;;;;;9.67;59.16;98949.81;4935053;28;100174;-87
2024/02/23 08:10:10;;;;;;;5.43;1.50;;;;;;;9.67;59.24;98952.41;4967164;28;100323;-87
2024/02/23 08:12:38;;;;;;;6.97;1.73;;;;;;;9.69;58.73;98941.97;4933374;28;96826;-88
2024/02/23 08:15:04;;;;;;;4.82;1.42;;;;;;;9.67;58.83;98949.81;4950419;28;96840;-87
2024/02/23 08:17:30;;;;;;;8.15;2.10;;;;;;;9.68;59.20;98948.09;4951337;28;97569;-87
2024/02/23 08:19:55;;;;;;;6.38;2.50;;;;;;;9.70;59.15;98947.16;4932576;28;101067;-88
2024/02/23 08:22:24;;;;;;;11.20;2.50;;;;;;;9.71;59.06;98946.31;4932977;28;96832;-88
2024/02/23 08:24:53;;;;;;;9.10;3.08;;;;;;;9.72;59.16;98942.78;4934072;28;96995;-87
2024/02/23 08:27:18;;;;;;;8.65;1.88;;;;;;;9.72;59.05;98942.78;4957437;28;100793;-87
2024/02/23 08:29:44;;;;;;;7.57;2.13;;;;;;;9.73;59.10;98941.03;4954001;28;99847;-88
2024/02/23 08:32:10;;;;;;;6.30;1.60;;;;;;;9.76;58.88;98929.75;4947111;28;96747;-87
2024/02/23 08:34:35;;;;;;;10.32;3.05;;;;;;;9.74;59.04;98923.69;4927306;28;96789;-88
2024/02/23 08:37:01;;;;;;;8.63;2.83;;;;;;;9.75;58.92;98923.69;4948601;28;100216;-86
2024/02/23 08:39:27;;;;;;;8.27;1.88;;;;;;;9.76;59.03;98924.53;4933482;28;99982;-86
2024/02/23 08:41:53;;;;;;;8.50;2.65;;;;;;;9.76;59.00;98914.13;4931173;28;96856;-87
2024/02/23 08:44:19;;;;;;;7.55;2.50;;;;;;;9.77;58.86;98927.13;4951569;28;96756;-87
2024/02/23 08:46:44;;;;;;;8.85;2.67;;;;;;;9.74;58.80;98932.38;4934762;28;100502;-87
2024/02/23 08:49:10;;;;;;;12.35;2.72;;;;;;;9.70;58.98;98936.75;4966598;28;100289;-87
2024/02/23 08:51:35;;;;;;;8.57;2.20;;;;;;;9.68;58.99;98938.53;4933659;28;96860;-87
2024/02/23 08:54:05;;;;;;;6.70;2.75;;;;;;;9.67;59.30;98944.59;4949019;28;96761;-88
2024/02/23 08:56:31;;;;;;;9.27;2.83;;;;;;;9.71;59.78;98945.41;4943849;28;99996;-88
2024/02/23 08:58:57;;;;;;;8.30;2.95;;;;;;;9.72;59.37;98934.97;4944783;28;100321;-88
2024/02/23 09:01:23;;;;;;;8.45;1.90;;;;;;;9.74;59.06;98940.16;4950351;28;96788;-87
2024/02/23 09:03:49;;;;;;;9.18;2.70;;;;;;;9.75;59.20;98946.22;4951988;28;96841;-88
2024/02/23 09:06:14;;;;;;;6.63;1.85;;;;;;;9.75;59.13;98934.09;4951832;28;100411;-90
2024/02/23 09:08:41;;;;;;;9.45;2.00;;;;;;;9.77;59.27;98941.84;4953375;28;98956;-89
2024/02/23 09:11:06;;;;;;;6.78;2.38;;;;;;;9.76;58.88;98943.59;4935008;28;96777;-88
2024/02/23 09:13:32;;;;;;;7.93;1.70;;;;;;;9.77;58.86;98945.34;4940247;28;96955;-89
2024/02/23 09:15:58;;;;;;;8.10;1.90;;;;;;;9.78;59.23;98948.81;4946855;28;100501;-88
2024/02/23 09:18:23;;;;;;;9.60;1.98;;;;;;;9.79;58.89;98953.13;4948506;28;99746;-89
2024/02/23 09:20:49;;;;;;;10.70;2.85;;;;;;;9.80;59.32;98949.63;4926609;28;96948;-87
2024/02/23 09:23:14;;;;;;;8.18;1.60;;;;;;;9.81;59.25;98959.19;4938615;28;96867;-89
2024/02/23 09:25:40;;;;;;;9.27;2.88;;;;;;;9.82;59.15;98955.66;4950173;28;100516;-88
2024/02/23 09:28:06;;;;;;;6.85;1.60;;;;;;;9.84;59.18;98953.91;4938978;28;100768;-90
2024/02/23 09:30:31;;;;;;;6.90;1.75;;;;;;;9.85;59.19;98951.28;4933169;28;96865;-88
2024/02/23 09:32:57;;;;;;;7.60;1.67;;;;;;;9.88;59.26;98950.38;4954168;28;96771;-88
2024/02/23 09:35:23;;;;;;;9.68;2.40;;;;;;;9.91;59.12;98973.78;4947954;28;99561;-88
2024/02/23 09:37:48;;;;;;;9.55;2.28;;;;;;;9.94;59.06;98962.44;4944970;28;99841;-89
2024/02/23 09:40:16;;;;;;;7.68;2.17;;;;;;;9.95;59.13;98965.03;4962113;28;96848;-88
2024/02/23 09:42:49;;;;;;;7.50;2.75;;;;;;;9.98;58.99;98972.81;4941101;28;96951;-89
2024/02/23 09:45:18;;;;;;;5.60;1.95;;;;;;;10.00;59.01;98970.16;4945400;28;100637;-90
2024/02/23 09:47:44;;;;;;;7.68;2.42;;;;;;;10.01;59.00;98972.75;4949196;28;99914;-88
2024/02/23 09:50:12;;;;;;;5.28;1.33;;;;;;;10.03;58.77;98968.38;4957634;28;96885;-88
2024/02/23 09:52:37;;;;;;;7.22;1.85;;;;;;;10.06;59.08;98977.91;4937260;28;96943;-88
2024/02/23 09:55:04;;;;;;;6.10;2.45;;;;;;;10.12;59.26;98963.91;4952465;28;98840;-87
2024/02/23 09:57:33;;;;;;;6.28;2.40;;;;;;;10.16;59.19;98966.47;4958888;28;99765;-90
2024/02/23 09:59:58;;;;;;;4.72;1.55;;;;;;;10.26;59.27;98972.38;4953513;28;96918;-90
2024/02/23 10:02:25;;;;;;;4.68;1.30;;;;;;;10.31;59.20;98965.38;4940085;28;96858;-88
2024/02/23 10:04:51;;;;;;;7.28;2.25;;;;;;;10.37;58.93;98960.03;4977159;28;97905;-87
2024/02/23 10:07:17;;;;;;;5.90;2.17;;;;;;;10.41;58.73;98961.75;4955781;28;99104;-87
2024/02/23 10:09:43;;;;;;;5.15;1.50;;;;;;;10.48;58.75;98959.88;4933467;28;96804;-88
2024/02/23 10:12:08;;;;;;;5.50;1.65;;;;;;;10.52;58.67;98971.97;4935787;28;96873;-88
2024/02/23 10:14:34;;;;;;;7.60;1.75;;;;;;;10.55;58.60;98969.31;4933296;28;99956;-89
2024/02/23 10:17:01;;;;;;;6.97;2.15;;;;;;;10.59;58.63;98980.56;4935356;28;99872;-88
2024/02/23 10:19:29;;;;;;;8.65;2.00;;;;;;;10.62;58.47;98983.97;4947103;28;96915;-87
2024/02/23 10:21:55;;;;;;;6.75;2.25;;;;;;;10.63;58.31;98988.28;4931821;28;96988;-88
2024/02/23 10:24:22;;;;;;;7.13;1.55;;;;;;;10.65;58.41;98977.84;4962368;28;98018;-90
2024/02/23 10:26:48;;;;;;;5.70;1.38;;;;;;;10.64;58.11;98984.81;4936278;28;99531;-89
2024/02/23 10:29:14;;;;;;;5.53;1.90;;;;;;;10.62;58.06;98981.38;4939191;28;96863;-89
2024/02/23 10:31:42;;;;;;;5.55;1.65;;;;;;;10.61;58.22;99004.84;4974690;28;97009;-88
2024/02/23 10:34:11;;;;;;;7.03;2.33;;;;;;;10.58;58.35;99013.56;4948928;28;100803;-87
2024/02/23 10:36:42;;;;;;;6.40;1.55;;;;;;;10.55;58.23;98997.13;4931458;28;101096;-87
2024/02/23 10:39:12;;;;;;;5.15;1.60;;;;;;;10.55;58.19;99004.94;4951496;28;96857;-87
2024/02/23 10:41:44;;;;;;;6.55;2.38;;;;;;;10.57;58.56;99016.19;4951545;28;96871;-89
2024/02/23 10:44:11;;;;;;;7.25;1.83;;;;;;;10.58;58.47;99018.78;4948504;28;100265;-87
2024/02/23 10:46:37;;;;;;;6.65;1.88;;;;;;;10.59;58.40;99012.69;4950005;28;99646;-89
2024/02/23 10:49:03;;;;;;;4.65;2.15;;;;;;;10.60;58.39;99014.41;4955871;28;96801;-88
2024/02/23 10:51:29;;;;;;;4.47;1.45;;;;;;;10.62;58.33;99022.19;4950759;28;96934;-88
2024/02/23 10:53:55;;;;;;;5.43;1.80;;;;;;;10.63;58.17;99022.19;4957546;28;97995;-87
2024/02/23 10:56:22;;;;;;;7.30;2.90;;;;;;;10.67;58.12;99021.22;4951166;28;98417;-87
2024/02/23 10:58:48;;;;;;;5.63;2.78;;;;;;;10.71;58.13;99023.78;4950965;28;97347;-86
2024/02/23 11:01:14;;;;;;;4.93;2.53;;;;;;;10.74;58.22;99022.00;4947436;28;96959;-87
2024/02/23 11:03:50;;;;;;;4.85;1.77;;;;;;;10.80;58.18;99021.03;4946000;28;100396;-87
2024/02/23 11:06:21;;;;;;;5.72;1.98;;;;;;;10.85;58.12;99033.13;4946962;28;97432;-89
2024/02/23 11:08:48;;;;;;;7.80;2.22;;;;;;;10.91;57.78;99032.16;4954574;28;96886;-88
2024/02/23 11:11:16;;;;;;;6.07;3.50;;;;;;;10.93;57.73;99038.19;4932814;28;97002;-88
2024/02/23 11:13:46;;;;;;;7.90;2.75;;;;;;;10.99;57.82;99019.81;4941539;28;100387;-88
2024/02/23 11:16:23;;;;;;;9.00;3.22;;;;;;;11.06;57.73;99041.44;4954991;28;96881;-89
2024/02/23 11:18:49;;;;;;;5.25;2.60;;;;;;;11.14;57.91;99029.13;4968211;28;96934;-89
2024/02/23 11:21:17;;;;;;;6.65;2.83;;;;;;;11.21;57.88;99038.56;4951953;28;96958;-91
2024/02/23 11:23:52;;;;;;;6.55;1.92;;;;;;;11.27;57.53;99034.09;4951104;28;99394;-89
2024/02/23 11:26:18;;;;;;;5.60;1.90;;;;;;;11.30;57.58;99039.25;4956461;28;97530;-91
2024/02/23 11:28:53;;;;;;;5.57;1.80;;;;;;;11.38;57.81;99043.44;4955584;28;100190;-92
2024/02/23 11:31:23;;;;;;;7.60;2.20;;;;;;;11.45;57.56;99038.09;4956865;28;96718;-91
2024/02/23 11:33:53;;;;;;;9.50;3.20;;;;;;;11.54;57.44;99040.53;4951666;28;100332;-91